createdAt,value
2018-02-24T00:01:57.405Z,-2.00
2018-02-24T00:04:25.659Z,-2.00
2018-02-24T00:06:53.114Z,-2.00
2018-02-24T00:09:20.567Z,-2.10
2018-02-24T00:11:48.031Z,-2.10
2018-02-24T00:14:16.224Z,-2.10
2018-02-24T00:16:44.458Z,-2.10
2018-02-24T00:19:11.938Z,-2.10
2018-02-24T00:21:39.396Z,-2.10
2018-02-24T00:24:06.841Z,-2.10
2018-02-24T00:26:34.311Z,-2.20
2018-02-24T00:29:01.836Z,-2.20
2018-02-24T00:31:29.321Z,-2.20
2018-02-24T00:33:56.784Z,-2.20
2018-02-24T00:36:24.254Z,-2.20
2018-02-24T00:38:52.488Z,-2.30
2018-02-24T00:41:19.956Z,-2.30
2018-02-24T00:43:47.414Z,-2.30
2018-02-24T00:46:14.862Z,-2.30
2018-02-24T00:48:42.890Z,-2.30
2018-02-24T00:51:11.120Z,-2.30
2018-02-24T00:53:38.620Z,-2.30
2018-02-24T00:56:06.848Z,-2.40
2018-02-24T00:58:34.318Z,-2.40
2018-02-24T01:01:01.783Z,-2.40
2018-02-24T01:03:29.252Z,-2.40
2018-02-24T01:05:56.747Z,-2.40
2018-02-24T01:08:24.216Z,-2.40
2018-02-24T01:10:51.694Z,-2.50
2018-02-24T01:13:19.207Z,-2.40
2018-02-24T01:15:47.430Z,-2.50
2018-02-24T01:18:14.887Z,-2.50
2018-02-24T01:20:42.356Z,-2.50
2018-02-24T01:23:09.841Z,-2.50
2018-02-24T01:25:37.315Z,-2.50
2018-02-24T01:28:06.135Z,-2.50
2018-02-24T01:30:33.597Z,-2.50
2018-02-24T01:33:01.055Z,-2.50
2018-02-24T01:35:28.534Z,-2.50
2018-02-24T01:37:56.035Z,-2.50
2018-02-24T01:40:24.255Z,-2.50
2018-02-24T01:42:51.746Z,-2.50
2018-02-24T01:45:19.244Z,-2.50
2018-02-24T01:47:47.462Z,-2.50
2018-02-24T01:50:14.947Z,-2.60
2018-02-24T01:52:42.396Z,-2.50
2018-02-24T01:55:09.894Z,-2.60
2018-02-24T01:57:38.112Z,-2.60
2018-02-24T02:00:05.581Z,-2.60
2018-02-24T02:02:33.066Z,-2.60
2018-02-24T02:05:00.531Z,-2.60
2018-02-24T02:07:28.757Z,-2.60
2018-02-24T02:09:56.244Z,-2.70
2018-02-24T02:12:23.708Z,-2.60
2018-02-24T02:14:51.178Z,-2.60
2018-02-24T02:17:18.632Z,-2.60
2018-02-24T02:19:46.094Z,-2.70
2018-02-24T02:22:14.322Z,-2.70
2018-02-24T02:24:41.866Z,-2.70
2018-02-24T02:27:09.332Z,-2.60
2018-02-24T02:29:36.787Z,-2.70
2018-02-24T02:32:04.271Z,-2.70
2018-02-24T02:34:31.793Z,-2.70
2018-02-24T02:36:59.250Z,-2.70
2018-02-24T02:39:26.723Z,-2.70
2018-02-24T02:41:54.198Z,-2.70
2018-02-24T02:44:21.661Z,-2.80
2018-02-24T02:46:49.118Z,-2.80
2018-02-24T02:49:16.702Z,-2.80
2018-02-24T02:51:44.187Z,-2.80
2018-02-24T02:54:12.447Z,-2.80
2018-02-24T02:56:39.923Z,-2.80
2018-02-24T02:59:08.143Z,-2.80
2018-02-24T03:01:35.648Z,-2.80
2018-02-24T03:04:03.876Z,-2.80
2018-02-24T03:06:31.350Z,-2.80
2018-02-24T03:08:58.838Z,-2.90
2018-02-24T03:11:26.313Z,-2.90
2018-02-24T03:13:54.536Z,-2.90
2018-02-24T03:16:22.023Z,-2.90
2018-02-24T03:18:49.491Z,-2.90
2018-02-24T03:21:16.955Z,-2.90
2018-02-24T03:23:45.191Z,-2.90
2018-02-24T03:26:12.658Z,-2.90
2018-02-24T03:28:40.119Z,-2.90
2018-02-24T03:31:07.615Z,-2.90
2018-02-24T03:33:35.851Z,-2.90
2018-02-24T03:36:03.311Z,-2.90
2018-02-24T03:38:30.789Z,-2.90
2018-02-24T03:40:58.250Z,-2.90
2018-02-24T03:43:25.707Z,-2.90
2018-02-24T03:46:03.869Z,-3.00
2018-02-24T03:48:31.385Z,-2.90
2018-02-24T03:50:59.619Z,-3.00
2018-02-24T03:53:27.087Z,-3.00
2018-02-24T03:55:54.568Z,-3.00
2018-02-24T03:58:22.051Z,-3.10
2018-02-24T04:00:50.278Z,-3.00
2018-02-24T04:03:17.752Z,-3.10
2018-02-24T04:05:45.194Z,-3.00
2018-02-24T04:08:12.684Z,-3.10
2018-02-24T04:10:40.915Z,-3.10
2018-02-24T04:13:08.480Z,-3.10
2018-02-24T04:15:35.964Z,-3.10
2018-02-24T04:18:03.421Z,-3.10
2018-02-24T04:20:30.881Z,-3.00
2018-02-24T04:22:58.351Z,-3.00
2018-02-24T04:25:26.567Z,-3.00
2018-02-24T04:27:54.051Z,-3.10
2018-02-24T04:30:21.503Z,-3.00
2018-02-24T04:32:48.978Z,-3.10
2018-02-24T04:35:16.446Z,-3.10
2018-02-24T04:37:43.896Z,-3.10
2018-02-24T04:40:12.135Z,-3.10
2018-02-24T04:42:39.639Z,-3.10
2018-02-24T04:45:07.199Z,-3.10
2018-02-24T04:47:34.672Z,-3.00
2018-02-24T04:50:02.942Z,-3.10
2018-02-24T04:52:30.407Z,-3.10
2018-02-24T04:54:58.864Z,-3.10
2018-02-24T04:57:26.325Z,-3.10
2018-02-24T04:59:53.807Z,-3.10
2018-02-24T05:02:22.044Z,-3.10
2018-02-24T05:04:49.519Z,-3.10
2018-02-24T05:07:16.997Z,-3.10
2018-02-24T05:09:45.223Z,-3.10
2018-02-24T05:12:12.702Z,-3.10
2018-02-24T05:14:40.167Z,-3.10
2018-02-24T05:17:07.635Z,-3.20
2018-02-24T05:19:35.106Z,-3.10
2018-02-24T05:22:03.341Z,-3.10
2018-02-24T05:24:30.842Z,-3.20
2018-02-24T05:26:59.081Z,-3.10
2018-02-24T05:29:26.579Z,-3.10
2018-02-24T05:31:54.034Z,-3.10
2018-02-24T05:34:22.318Z,-3.10
2018-02-24T05:36:50.674Z,-3.10
2018-02-24T05:39:18.167Z,-3.10
2018-02-24T05:41:46.380Z,-3.20
2018-02-24T05:44:13.859Z,-3.20
2018-02-24T05:46:41.350Z,-3.20
2018-02-24T05:49:09.600Z,-3.20
2018-02-24T05:51:37.069Z,-3.20
2018-02-24T05:54:05.348Z,-3.10
2018-02-24T05:56:32.811Z,-3.10
2018-02-24T05:59:00.291Z,-3.20
2018-02-24T06:01:28.551Z,-3.20
2018-02-24T06:03:56.796Z,-3.20
2018-02-24T06:06:24.383Z,-3.20
2018-02-24T06:08:51.836Z,-3.20
2018-02-24T06:11:19.380Z,-3.20
2018-02-24T06:13:46.855Z,-3.20
2018-02-24T06:16:14.312Z,-3.20
2018-02-24T06:18:41.754Z,-3.20
2018-02-24T06:21:09.232Z,-3.20
2018-02-24T06:23:36.716Z,-3.20
2018-02-24T06:26:04.962Z,-3.20
2018-02-24T06:28:32.426Z,-3.30
2018-02-24T06:30:59.902Z,-3.30
2018-02-24T06:33:28.170Z,-3.30
2018-02-24T06:35:56.433Z,-3.30
2018-02-24T06:38:24.707Z,-3.30
2018-02-24T06:40:52.157Z,-3.30
2018-02-24T06:43:19.623Z,-3.30
2018-02-24T06:45:47.112Z,-3.30
2018-02-24T06:48:15.366Z,-3.30
2018-02-24T06:50:42.826Z,-3.30
2018-02-24T06:53:10.292Z,-3.20
2018-02-24T06:55:38.527Z,-3.20
2018-02-24T06:58:06.019Z,-3.20
2018-02-24T07:00:33.467Z,-3.20
2018-02-24T07:03:00.939Z,-3.20
2018-02-24T07:05:29.211Z,-3.10
2018-02-24T07:07:56.671Z,-3.10
2018-02-24T07:10:24.130Z,-3.10
2018-02-24T07:12:51.616Z,-3.10
2018-02-24T07:15:19.139Z,-3.00
2018-02-24T07:17:46.598Z,-3.00
2018-02-24T07:20:14.055Z,-3.00
2018-02-24T07:22:41.527Z,-2.90
2018-02-24T07:25:09.767Z,-2.90
2018-02-24T07:27:37.255Z,-2.90
2018-02-24T07:30:04.723Z,-2.90
2018-02-24T07:32:33.196Z,-2.80
2018-02-24T07:35:01.473Z,-2.70
2018-02-24T07:37:28.946Z,-2.70
2018-02-24T07:39:57.203Z,-2.60
2018-02-24T07:42:24.751Z,-2.60
2018-02-24T07:44:52.248Z,-2.60
2018-02-24T07:47:19.799Z,-2.50
2018-02-24T07:49:48.045Z,-2.50
2018-02-24T07:52:15.514Z,-2.50
2018-02-24T07:54:42.978Z,-2.40
2018-02-24T07:57:10.492Z,-2.40
2018-02-24T07:59:37.955Z,-2.30
2018-02-24T08:02:05.505Z,-2.20
2018-02-24T08:04:32.999Z,-2.10
2018-02-24T08:07:00.469Z,-2.00
2018-02-24T08:09:27.935Z,-2.00
2018-02-24T08:11:55.396Z,-2.00
2018-02-24T08:14:22.847Z,-1.90
2018-02-24T08:16:50.326Z,-1.80
2018-02-24T08:19:18.558Z,-1.70
2018-02-24T08:21:46.042Z,-1.70
2018-02-24T08:24:13.516Z,-1.60
2018-02-24T08:26:41.778Z,-1.40
2018-02-24T08:29:09.232Z,-1.40
2018-02-24T08:31:36.718Z,-0.70
2018-02-24T08:34:04.174Z,0.10
2018-02-24T08:36:31.690Z,0.70
2018-02-24T08:38:59.187Z,1.50
2018-02-24T08:41:27.412Z,1.70
2018-02-24T08:43:54.959Z,1.70
2018-02-24T08:46:22.438Z,1.40
2018-02-24T08:48:49.916Z,1.60
2018-02-24T08:51:17.370Z,1.80
2018-02-24T08:53:44.846Z,1.70
2018-02-24T08:56:13.084Z,2.10
2018-02-24T08:58:40.620Z,2.10
2018-02-24T09:01:08.087Z,2.30
2018-02-24T09:03:35.551Z,2.40
2018-02-24T09:06:03.046Z,2.20
2018-02-24T09:08:30.508Z,2.10
2018-02-24T09:10:57.953Z,2.20
2018-02-24T09:13:25.726Z,2.60
2018-02-24T09:15:53.249Z,2.80
2018-02-24T09:18:20.839Z,2.90
2018-02-24T09:20:48.306Z,3.20
2018-02-24T09:23:15.854Z,2.60
2018-02-24T09:25:43.320Z,2.60
2018-02-24T09:28:10.773Z,2.40
2018-02-24T09:30:38.295Z,2.40
2018-02-24T09:33:05.754Z,2.40
2018-02-24T09:35:33.228Z,2.80
2018-02-24T09:38:00.681Z,3.20
2018-02-24T09:40:28.153Z,3.10
2018-02-24T09:42:55.616Z,3.40
2018-02-24T09:45:23.097Z,3.10
2018-02-24T09:47:50.558Z,3.40
2018-02-24T09:50:18.007Z,3.50
2018-02-24T09:52:45.524Z,3.50
2018-02-24T09:55:12.988Z,3.40
2018-02-24T09:57:40.448Z,3.50
2018-02-24T10:00:07.990Z,3.70
2018-02-24T10:02:35.435Z,3.60
2018-02-24T10:05:02.908Z,3.50
2018-02-24T10:07:30.347Z,3.60
2018-02-24T10:09:57.796Z,3.70
2018-02-24T10:12:26.028Z,3.40
2018-02-24T10:14:53.524Z,3.40
2018-02-24T10:17:21.761Z,3.70
2018-02-24T10:19:49.249Z,3.60
2018-02-24T10:22:16.773Z,3.70
2018-02-24T10:24:44.259Z,3.70
2018-02-24T10:27:11.710Z,3.50
2018-02-24T10:29:39.467Z,3.30
2018-02-24T10:32:07.054Z,3.40
2018-02-24T10:34:35.270Z,3.20
2018-02-24T10:37:02.711Z,3.10
2018-02-24T10:39:30.166Z,3.20
2018-02-24T10:41:57.654Z,3.20
2018-02-24T10:44:25.280Z,3.00
2018-02-24T10:46:53.502Z,3.20
2018-02-24T10:49:20.978Z,3.20
2018-02-24T10:51:48.457Z,3.40
2018-02-24T10:54:15.968Z,3.20
2018-02-24T10:56:43.436Z,3.30
2018-02-24T10:59:11.327Z,3.30
2018-02-24T11:01:38.804Z,3.40
2018-02-24T11:04:06.310Z,3.40
2018-02-24T11:06:33.792Z,3.70
2018-02-24T11:09:01.285Z,3.30
2018-02-24T11:11:29.705Z,2.80
2018-02-24T11:13:57.167Z,2.80
2018-02-24T11:16:24.655Z,2.20
2018-02-24T11:18:52.133Z,2.10
2018-02-24T11:21:20.356Z,1.90
2018-02-24T11:23:47.907Z,1.80
2018-02-24T11:26:15.349Z,1.90
2018-02-24T11:28:43.676Z,2.00
2018-02-24T11:31:11.131Z,1.90
2018-02-24T11:33:38.624Z,2.10
2018-02-24T11:36:06.070Z,2.10
2018-02-24T11:38:33.514Z,2.10
2018-02-24T11:41:01.151Z,2.10
2018-02-24T11:43:28.623Z,1.90
2018-02-24T11:45:56.166Z,2.10
2018-02-24T11:48:23.626Z,2.10
2018-02-24T11:50:51.090Z,2.20
2018-02-24T11:53:18.552Z,2.20
2018-02-24T11:55:46.031Z,2.30
2018-02-24T11:58:13.709Z,2.30
2018-02-24T12:00:41.254Z,2.30
2018-02-24T12:03:08.688Z,2.30
2018-02-24T12:05:36.548Z,2.20
2018-02-24T12:08:04.075Z,2.20
2018-02-24T12:10:31.611Z,2.40
2018-02-24T12:12:59.101Z,2.40
2018-02-24T12:15:27.349Z,2.20
2018-02-24T12:17:54.908Z,2.20
2018-02-24T12:20:22.434Z,2.20
2018-02-24T12:22:49.916Z,2.40
2018-02-24T12:25:17.351Z,2.50
2018-02-24T12:27:44.803Z,2.40
2018-02-24T12:30:12.571Z,2.40
2018-02-24T12:32:40.040Z,2.40
2018-02-24T12:35:07.686Z,2.60
2018-02-24T12:37:35.471Z,2.70
2018-02-24T12:40:02.935Z,2.70
2018-02-24T12:42:30.432Z,2.50
2018-02-24T12:44:57.918Z,2.60
2018-02-24T12:47:25.481Z,2.60
2018-02-24T12:49:52.960Z,2.70
2018-02-24T12:52:20.686Z,2.50
2018-02-24T12:54:48.367Z,2.50
2018-02-24T12:57:15.843Z,2.60
2018-02-24T12:59:43.288Z,2.60
2018-02-24T13:02:10.747Z,2.60
2018-02-24T13:04:38.212Z,2.70
2018-02-24T13:07:05.676Z,2.70
2018-02-24T13:09:33.196Z,2.60
2018-02-24T13:12:00.650Z,2.40
2018-02-24T13:14:28.919Z,2.50
2018-02-24T13:16:57.186Z,2.50
2018-02-24T13:19:24.631Z,2.50
2018-02-24T13:21:52.113Z,2.50
2018-02-24T13:24:20.387Z,2.40
2018-02-24T13:26:48.841Z,2.60
2018-02-24T13:29:16.312Z,2.50
2018-02-24T13:31:43.770Z,2.50
2018-02-24T13:34:11.418Z,2.50
2018-02-24T13:36:39.146Z,2.50
2018-02-24T13:39:06.788Z,2.50
2018-02-24T13:41:35.331Z,2.70
2018-02-24T13:44:02.864Z,2.70
2018-02-24T13:46:30.367Z,2.70
2018-02-24T13:48:58.093Z,2.80
2018-02-24T13:51:25.553Z,3.10
2018-02-24T13:53:53.299Z,3.20
2018-02-24T13:56:21.506Z,3.20
2018-02-24T13:58:48.948Z,3.20
2018-02-24T14:01:16.547Z,2.90
2018-02-24T14:03:44.004Z,2.90
2018-02-24T14:06:11.527Z,2.70
2018-02-24T14:08:39.008Z,2.50
2018-02-24T14:11:06.495Z,2.40
2018-02-24T14:13:34.783Z,2.20
2018-02-24T14:16:03.009Z,2.10
2018-02-24T14:18:30.572Z,2.10
2018-02-24T14:20:58.127Z,2.10
2018-02-24T14:23:25.607Z,2.10
2018-02-24T14:25:53.079Z,2.10
2018-02-24T14:28:21.319Z,2.10
2018-02-24T14:30:48.825Z,2.10
2018-02-24T14:33:16.246Z,2.20
2018-02-24T14:35:44.028Z,2.30
2018-02-24T14:38:11.679Z,2.40
2018-02-24T14:40:40.535Z,2.60
2018-02-24T14:43:08.383Z,2.60
2018-02-24T14:45:36.830Z,2.60
2018-02-24T14:48:04.267Z,2.60
2018-02-24T14:50:31.763Z,2.40
2018-02-24T14:52:59.998Z,2.20
2018-02-24T14:55:27.634Z,2.20
2018-02-24T14:57:55.121Z,2.20
2018-02-24T15:00:22.587Z,2.10
2018-02-24T15:02:50.316Z,2.00
2018-02-24T15:05:17.798Z,1.90
2018-02-24T15:07:45.272Z,1.90
2018-02-24T15:10:13.101Z,1.80
2018-02-24T15:12:40.671Z,1.90
2018-02-24T15:15:08.134Z,1.90
2018-02-24T15:17:35.606Z,1.70
2018-02-24T15:20:03.076Z,1.70
2018-02-24T15:22:30.540Z,1.70
2018-02-24T15:24:58.111Z,1.70
2018-02-24T15:27:25.563Z,1.70
2018-02-24T15:29:53.041Z,1.70
2018-02-24T15:32:21.284Z,1.70
2018-02-24T15:34:48.745Z,1.70
2018-02-24T15:37:16.255Z,1.70
2018-02-24T15:39:43.694Z,1.70
2018-02-24T15:42:11.923Z,1.70
2018-02-24T15:44:39.402Z,1.60
2018-02-24T15:47:06.947Z,1.60
2018-02-24T15:49:34.418Z,1.60
2018-02-24T15:52:02.788Z,1.60
2018-02-24T15:54:30.333Z,1.60
2018-02-24T15:56:57.836Z,1.60
2018-02-24T15:59:26.172Z,1.50
2018-02-24T16:01:53.659Z,1.50
2018-02-24T16:04:21.144Z,1.50
2018-02-24T16:06:49.363Z,1.50
2018-02-24T16:09:16.914Z,1.50
2018-02-24T16:11:44.378Z,1.50
2018-02-24T16:14:11.839Z,1.50
2018-02-24T16:16:39.303Z,1.50
2018-02-24T16:19:06.846Z,1.40
2018-02-24T16:21:34.352Z,1.40
2018-02-24T16:24:01.858Z,1.40
2018-02-24T16:26:29.337Z,1.50
2018-02-24T16:28:56.995Z,1.50
2018-02-24T16:31:24.551Z,1.40
2018-02-24T16:33:51.997Z,1.40
2018-02-24T16:36:19.483Z,1.40
2018-02-24T16:38:47.040Z,1.40
2018-02-24T16:41:14.527Z,1.40
2018-02-24T16:43:41.979Z,1.40
2018-02-24T16:46:09.457Z,1.30
2018-02-24T16:48:37.671Z,1.30
2018-02-24T16:51:05.148Z,1.30
2018-02-24T16:53:32.794Z,1.20
2018-02-24T16:56:00.363Z,1.20
2018-02-24T16:58:27.814Z,1.20
2018-02-24T17:00:55.262Z,1.20
2018-02-24T17:03:22.756Z,1.20
2018-02-24T17:05:50.212Z,1.20
2018-02-24T17:08:17.704Z,1.20
2018-02-24T17:10:45.933Z,1.10
2018-02-24T17:13:13.394Z,1.10
2018-02-24T17:15:40.963Z,1.10
2018-02-24T17:18:08.424Z,1.10
2018-02-24T17:20:35.910Z,1.10
2018-02-24T17:23:03.363Z,1.10
2018-02-24T17:25:31.114Z,1.00
2018-02-24T17:27:59.365Z,1.00
2018-02-24T17:30:27.141Z,1.00
2018-02-24T17:32:54.597Z,0.90
2018-02-24T17:35:22.093Z,0.90
2018-02-24T17:37:50.362Z,0.90
2018-02-24T17:40:17.908Z,0.90
2018-02-24T17:42:45.378Z,0.80
2018-02-24T17:45:12.819Z,0.80
2018-02-24T17:47:40.291Z,0.80
2018-02-24T17:50:08.827Z,0.80
2018-02-24T17:52:36.282Z,0.70
2018-02-24T17:55:03.741Z,0.70
2018-02-24T17:57:31.271Z,0.60
2018-02-24T17:59:58.791Z,0.60
2018-02-24T18:02:26.291Z,0.60
2018-02-24T18:04:53.708Z,0.60
2018-02-24T18:07:21.173Z,0.60
2018-02-24T18:09:48.627Z,0.60
2018-02-24T18:12:16.103Z,0.50
2018-02-24T18:14:44.331Z,0.50
2018-02-24T18:17:11.918Z,0.50
2018-02-24T18:19:39.564Z,0.50
2018-02-24T18:22:07.013Z,0.50
2018-02-24T18:24:34.525Z,0.40
2018-02-24T18:27:02.044Z,0.40
2018-02-24T18:29:30.463Z,0.40
2018-02-24T18:31:57.924Z,0.40
2018-02-24T18:34:25.431Z,0.30
2018-02-24T18:36:52.942Z,0.30
2018-02-24T18:39:20.392Z,0.30
2018-02-24T18:41:47.933Z,0.30
2018-02-24T18:44:15.375Z,0.20
2018-02-24T18:46:42.868Z,0.20
2018-02-24T18:49:10.376Z,0.20
2018-02-24T18:51:37.933Z,0.20
2018-02-24T18:54:05.654Z,0.20
2018-02-24T18:56:33.170Z,0.10
2018-02-24T18:59:00.668Z,0.10
2018-02-24T19:01:28.187Z,0.10
2018-02-24T19:03:55.675Z,0.10
2018-02-24T19:06:23.130Z,0.10
2018-02-24T19:08:50.637Z,0.00
2018-02-24T19:11:18.884Z,0.00
2018-02-24T19:13:46.332Z,0.00
2018-02-24T19:16:13.798Z,0.00
2018-02-24T19:18:41.285Z,-0.10
2018-02-24T19:21:09.635Z,-0.10
2018-02-24T19:23:37.078Z,-0.10
2018-02-24T19:26:04.623Z,-0.10
2018-02-24T19:28:32.076Z,-0.20
2018-02-24T19:30:59.641Z,-0.20
2018-02-24T19:33:27.131Z,-0.20
2018-02-24T19:35:54.606Z,-0.20
2018-02-24T19:38:22.853Z,-0.20
2018-02-24T19:40:50.344Z,-0.30
2018-02-24T19:43:18.599Z,-0.30
2018-02-24T19:45:46.044Z,-0.30
2018-02-24T19:48:13.596Z,-0.30
2018-02-24T19:50:41.054Z,-0.30
2018-02-24T19:53:08.530Z,-0.30
2018-02-24T19:55:35.963Z,-0.30
2018-02-24T19:58:03.610Z,-0.30
2018-02-24T20:00:31.151Z,-0.30
2018-02-24T20:02:58.674Z,-0.30
2018-02-24T20:05:26.180Z,-0.30
2018-02-24T20:07:53.663Z,-0.40
2018-02-24T20:10:21.349Z,-0.40
2018-02-24T20:12:48.828Z,-0.40
2018-02-24T20:15:17.056Z,-0.50
2018-02-24T20:17:44.609Z,-0.50
2018-02-24T20:20:12.087Z,-0.50
2018-02-24T20:22:39.569Z,-0.50
2018-02-24T20:25:07.031Z,-0.50
2018-02-24T20:27:34.498Z,-0.50
2018-02-24T20:30:02.731Z,-0.60
2018-02-24T20:32:30.219Z,-0.60
2018-02-24T20:34:57.693Z,-0.60
2018-02-24T20:37:26.160Z,-0.60
2018-02-24T20:39:53.619Z,-0.60
2018-02-24T20:42:21.098Z,-0.70
2018-02-24T20:44:50.102Z,-0.70
2018-02-24T20:47:17.575Z,-0.70
2018-02-24T20:49:45.043Z,-0.70
2018-02-24T20:52:12.504Z,-0.80
2018-02-24T20:54:40.021Z,-0.80
2018-02-24T20:57:07.629Z,-0.80
2018-02-24T20:59:35.118Z,-0.80
2018-02-24T21:02:02.591Z,-0.80
2018-02-24T21:04:30.860Z,-0.80
2018-02-24T21:06:58.797Z,-0.80
2018-02-24T21:09:26.364Z,-0.90
2018-02-24T21:11:53.873Z,-0.90
2018-02-24T21:14:22.467Z,-0.90
2018-02-24T21:16:49.967Z,-0.90
2018-02-24T21:19:17.450Z,-0.90
2018-02-24T21:21:44.922Z,-0.90
2018-02-24T21:24:12.378Z,-1.00
2018-02-24T21:26:40.650Z,-1.00
2018-02-24T21:29:08.102Z,-1.00
2018-02-24T21:31:35.635Z,-1.00
2018-02-24T21:34:03.328Z,-1.00
2018-02-24T21:36:31.041Z,-1.00
2018-02-24T21:38:58.509Z,-1.10
2018-02-24T21:41:26.096Z,-1.10
2018-02-24T21:43:53.600Z,-1.10
2018-02-24T21:46:21.834Z,-1.20
2018-02-24T21:48:49.306Z,-1.20
2018-02-24T21:51:16.745Z,-1.20
2018-02-24T21:53:44.241Z,-1.20
2018-02-24T21:56:12.497Z,-1.20
2018-02-24T21:58:39.973Z,-1.20
2018-02-24T22:01:08.315Z,-1.30
2018-02-24T22:03:35.775Z,-1.30
2018-02-24T22:06:03.311Z,-1.30
2018-02-24T22:08:31.213Z,-1.30
2018-02-24T22:10:58.760Z,-1.30
2018-02-24T22:13:26.228Z,-1.30
2018-02-24T22:15:53.802Z,-1.30
2018-02-24T22:18:21.269Z,-1.40
2018-02-24T22:20:49.538Z,-1.40
2018-02-24T22:23:17.091Z,-1.50
2018-02-24T22:25:44.545Z,-1.40
2018-02-24T22:28:12.018Z,-1.40
2018-02-24T22:30:40.237Z,-1.50
2018-02-24T22:33:07.693Z,-1.50
2018-02-24T22:35:35.196Z,-1.50
2018-02-24T22:38:02.796Z,-1.50
2018-02-24T22:40:31.035Z,-1.50
2018-02-24T22:42:58.501Z,-1.60
2018-02-24T22:45:26.172Z,-1.50
2018-02-24T22:47:59.468Z,-1.60
2018-02-24T22:50:26.911Z,-1.60
2018-02-24T22:52:54.377Z,-1.60
2018-02-24T22:55:21.865Z,-1.60
2018-02-24T22:57:50.084Z,-1.70
2018-02-24T23:00:17.586Z,-1.70
2018-02-24T23:02:45.831Z,-1.70
2018-02-24T23:05:13.312Z,-1.70
2018-02-24T23:07:41.559Z,-1.80
2018-02-24T23:10:09.066Z,-1.80
2018-02-24T23:12:37.474Z,-1.80
2018-02-24T23:15:04.946Z,-1.80
2018-02-24T23:17:32.407Z,-1.80
2018-02-24T23:19:59.946Z,-1.80
2018-02-24T23:22:27.403Z,-1.90
2018-02-24T23:24:55.072Z,-1.90
2018-02-24T23:27:22.576Z,-1.90
2018-02-24T23:29:50.022Z,-2.00
2018-02-24T23:32:17.505Z,-2.00
2018-02-24T23:34:46.121Z,-2.00
2018-02-24T23:37:13.619Z,-2.00
2018-02-24T23:39:41.066Z,-2.00
2018-02-24T23:42:08.590Z,-2.00
2018-02-24T23:44:36.032Z,-2.10
2018-02-24T23:47:04.265Z,-2.10
2018-02-24T23:49:31.726Z,-2.10
2018-02-24T23:51:59.187Z,-2.10
2018-02-24T23:54:26.716Z,-2.10
2018-02-24T23:56:54.304Z,-2.10
2018-02-24T23:59:21.799Z,-2.20
